createdAt,value
2018-10-03T00:00:30.812Z,10.09
2018-10-03T00:02:59.892Z,10.04
2018-10-03T00:05:28.980Z,10.10
2018-10-03T00:07:58.134Z,10.10
2018-10-03T00:10:27.368Z,10.10
2018-10-03T00:12:56.452Z,10.05
2018-10-03T00:15:25.622Z,10.07
2018-10-03T00:17:54.684Z,10.00
2018-10-03T00:20:23.772Z,9.99
2018-10-03T00:22:53.728Z,9.99
2018-10-03T00:25:22.948Z,10.01
2018-10-03T00:27:52.127Z,10.03
2018-10-03T00:30:21.320Z,10.04
2018-10-03T00:32:50.472Z,10.03
2018-10-03T00:35:19.583Z,10.01
2018-10-03T00:37:48.712Z,10.00
2018-10-03T00:40:17.843Z,10.00
2018-10-03T00:42:47.062Z,10.03
2018-10-03T00:45:16.223Z,10.00
2018-10-03T00:47:45.398Z,10.03
2018-10-03T00:50:14.612Z,10.02
2018-10-03T00:52:43.709Z,10.00
2018-10-03T00:55:12.847Z,9.98
2018-10-03T00:57:41.981Z,10.02
2018-10-03T01:00:11.171Z,10.07
2018-10-03T01:02:40.389Z,10.05
2018-10-03T01:05:09.480Z,10.02
2018-10-03T01:07:38.572Z,10.04
2018-10-03T01:10:07.717Z,10.09
2018-10-03T01:12:36.799Z,10.03
2018-10-03T01:15:05.957Z,10.03
2018-10-03T01:17:35.008Z,10.01
2018-10-03T01:20:04.125Z,10.00
2018-10-03T01:22:33.344Z,9.99
2018-10-03T01:25:02.497Z,10.00
2018-10-03T01:27:31.554Z,10.04
2018-10-03T01:30:01.508Z,10.00
2018-10-03T01:32:31.022Z,10.07
2018-10-03T01:35:00.177Z,10.07
2018-10-03T01:37:29.268Z,10.09
2018-10-03T01:39:58.444Z,10.11
2018-10-03T01:42:27.508Z,10.12
2018-10-03T01:44:56.673Z,10.11
2018-10-03T01:47:25.936Z,10.13
2018-10-03T01:49:55.108Z,10.13
2018-10-03T01:52:24.228Z,10.12
2018-10-03T01:54:53.444Z,10.13
2018-10-03T01:57:22.524Z,10.13
2018-10-03T01:59:51.768Z,10.09
2018-10-03T02:02:20.823Z,10.14
2018-10-03T02:04:50.855Z,10.15
2018-10-03T02:07:19.936Z,10.08
2018-10-03T02:09:49.164Z,10.07
2018-10-03T02:12:18.333Z,10.09
2018-10-03T02:14:47.510Z,10.12
2018-10-03T02:17:16.665Z,10.07
2018-10-03T02:19:45.847Z,10.07
2018-10-03T02:22:14.936Z,10.07
2018-10-03T02:24:44.096Z,10.05
2018-10-03T02:27:13.156Z,10.02
2018-10-03T02:29:42.401Z,10.06
2018-10-03T02:32:11.521Z,10.04
2018-10-03T02:34:40.724Z,10.05
2018-10-03T02:37:09.861Z,10.07
2018-10-03T02:39:38.985Z,10.13
2018-10-03T02:42:08.061Z,10.08
2018-10-03T02:44:37.309Z,10.08
2018-10-03T02:47:06.562Z,10.05
2018-10-03T02:49:35.879Z,10.07
2018-10-03T02:52:05.485Z,10.03
2018-10-03T02:54:34.705Z,10.05
2018-10-03T02:57:03.785Z,10.02
2018-10-03T02:59:33.007Z,10.00
2018-10-03T03:02:02.171Z,9.98
2018-10-03T03:04:31.428Z,10.01
2018-10-03T03:07:00.525Z,10.05
2018-10-03T03:09:29.652Z,10.03
2018-10-03T03:11:58.756Z,9.97
2018-10-03T03:14:27.994Z,10.03
2018-10-03T03:16:57.068Z,10.03
2018-10-03T03:19:26.168Z,10.04
2018-10-03T03:21:55.252Z,10.05
2018-10-03T03:24:24.559Z,10.05
2018-10-03T03:26:53.643Z,10.07
2018-10-03T03:29:22.836Z,10.08
2018-10-03T03:31:51.888Z,10.08
2018-10-03T03:34:21.051Z,10.08
2018-10-03T03:36:50.152Z,10.10
2018-10-03T03:39:19.306Z,10.08
2018-10-03T03:41:48.420Z,10.09
2018-10-03T03:44:17.581Z,10.10
2018-10-03T03:46:46.705Z,10.08
2018-10-03T03:49:15.925Z,10.13
2018-10-03T03:51:45.001Z,10.14
2018-10-03T03:54:14.215Z,10.09
2018-10-03T03:56:43.394Z,10.09
2018-10-03T03:59:12.574Z,10.12
2018-10-03T04:01:41.681Z,10.12
2018-10-03T04:04:10.845Z,10.13
2018-10-03T04:06:40.082Z,10.13
2018-10-03T04:09:09.307Z,10.17
2018-10-03T04:11:38.504Z,10.11
2018-10-03T04:14:07.776Z,10.13
2018-10-03T04:16:36.832Z,10.17
2018-10-03T04:19:05.997Z,10.16
2018-10-03T04:21:37.649Z,10.19
2018-10-03T04:24:07.948Z,10.16
2018-10-03T04:26:37.209Z,10.14
2018-10-03T04:29:06.719Z,10.11
2018-10-03T04:31:36.462Z,10.10
2018-10-03T04:34:06.153Z,10.10
2018-10-03T04:36:35.739Z,10.07
2018-10-03T04:39:06.864Z,10.06
2018-10-03T04:41:36.691Z,10.08
2018-10-03T04:44:05.815Z,10.10
2018-10-03T04:46:34.923Z,10.13
2018-10-03T04:49:04.199Z,10.15
2018-10-03T04:51:33.340Z,10.16
2018-10-03T04:54:02.527Z,10.14
2018-10-03T04:56:31.626Z,10.10
2018-10-03T04:59:00.837Z,10.14
2018-10-03T05:01:30.034Z,10.14
2018-10-03T05:03:59.109Z,10.19
2018-10-03T05:06:28.301Z,10.17
2018-10-03T05:08:57.420Z,10.15
2018-10-03T05:11:26.681Z,10.14
2018-10-03T05:13:55.700Z,10.16
2018-10-03T05:16:25.859Z,10.19
2018-10-03T05:18:55.049Z,10.21
2018-10-03T05:21:24.205Z,10.21
2018-10-03T05:23:53.303Z,10.26
2018-10-03T05:26:22.506Z,10.26
2018-10-03T05:28:51.658Z,10.26
2018-10-03T05:31:20.794Z,10.27
2018-10-03T05:33:49.996Z,10.29
2018-10-03T05:36:19.084Z,10.31
2018-10-03T05:38:48.242Z,10.36
2018-10-03T05:41:17.413Z,10.34
2018-10-03T05:43:46.604Z,10.39
2018-10-03T05:46:15.768Z,10.38
2018-10-03T05:48:45.059Z,10.40
2018-10-03T05:51:14.164Z,10.44
2018-10-03T05:53:43.327Z,10.43
2018-10-03T05:56:12.404Z,10.46
2018-10-03T05:58:41.533Z,10.50
2018-10-03T06:01:10.722Z,10.50
2018-10-03T06:03:39.830Z,10.55
2018-10-03T06:06:08.961Z,10.57
2018-10-03T06:08:39.264Z,10.61
2018-10-03T06:11:08.372Z,10.63
2018-10-03T06:13:37.539Z,10.67
2018-10-03T06:16:06.628Z,10.70
2018-10-03T06:18:35.886Z,10.74
2018-10-03T06:21:04.985Z,10.75
2018-10-03T06:23:34.141Z,10.80
2018-10-03T06:26:03.237Z,10.78
2018-10-03T06:28:32.495Z,10.82
2018-10-03T06:31:01.570Z,10.88
2018-10-03T06:33:30.753Z,10.87
2018-10-03T06:35:59.932Z,10.94
2018-10-03T06:38:29.145Z,10.98
2018-10-03T06:40:58.302Z,10.97
2018-10-03T06:43:27.558Z,11.04
2018-10-03T06:45:56.657Z,11.05
2018-10-03T06:48:25.846Z,11.08
2018-10-03T06:50:55.020Z,11.09
2018-10-03T06:53:24.133Z,11.13
2018-10-03T06:55:53.464Z,11.10
2018-10-03T06:58:22.628Z,11.22
2018-10-03T07:00:51.723Z,11.23
2018-10-03T07:03:20.920Z,11.28
2018-10-03T07:05:50.035Z,11.34
2018-10-03T07:08:19.120Z,11.33
2018-10-03T07:10:48.284Z,11.39
2018-10-03T07:13:17.412Z,11.47
2018-10-03T07:15:46.491Z,11.49
2018-10-03T07:18:15.630Z,11.45
2018-10-03T07:20:44.804Z,11.47
2018-10-03T07:23:13.910Z,11.47
2018-10-03T07:25:42.999Z,11.55
2018-10-03T07:28:12.076Z,11.55
2018-10-03T07:30:41.160Z,11.60
2018-10-03T07:33:10.275Z,11.64
2018-10-03T07:35:39.345Z,11.65
2018-10-03T07:38:08.457Z,11.60
2018-10-03T07:40:37.525Z,11.61
2018-10-03T07:43:06.591Z,11.60
2018-10-03T07:45:35.681Z,11.54
2018-10-03T07:48:04.860Z,11.60
2018-10-03T07:50:33.873Z,11.57
2018-10-03T07:53:03.099Z,11.60
2018-10-03T07:55:32.205Z,11.61
2018-10-03T07:58:01.326Z,11.60
2018-10-03T08:00:31.354Z,11.57
2018-10-03T08:03:00.564Z,11.60
2018-10-03T08:05:30.106Z,11.63
2018-10-03T08:07:59.507Z,11.67
2018-10-03T08:10:28.562Z,11.72
2018-10-03T08:12:57.668Z,11.85
2018-10-03T08:15:26.758Z,12.02
2018-10-03T08:17:55.930Z,12.10
2018-10-03T08:20:25.035Z,12.10
2018-10-03T08:22:54.196Z,12.24
2018-10-03T08:25:23.325Z,12.31
2018-10-03T08:27:52.433Z,12.49
2018-10-03T08:30:21.521Z,12.60
2018-10-03T08:32:50.819Z,12.47
2018-10-03T08:35:19.931Z,12.65
2018-10-03T08:37:49.093Z,12.68
2018-10-03T08:40:18.228Z,12.67
2018-10-03T08:42:47.738Z,13.02
2018-10-03T08:45:16.809Z,13.19
2018-10-03T08:47:45.910Z,13.04
2018-10-03T08:50:14.981Z,13.30
2018-10-03T08:52:44.089Z,13.43
2018-10-03T08:55:13.184Z,13.36
2018-10-03T08:57:42.832Z,13.49
2018-10-03T09:00:12.423Z,13.41
2018-10-03T09:02:41.512Z,13.40
2018-10-03T09:05:10.802Z,13.53
2018-10-03T09:07:39.958Z,13.68
2018-10-03T09:10:09.314Z,13.72
2018-10-03T09:12:38.411Z,13.66
2018-10-03T09:15:07.496Z,13.75
2018-10-03T09:17:36.612Z,13.51
2018-10-03T09:20:05.794Z,13.75
2018-10-03T09:22:34.900Z,13.70
2018-10-03T09:25:04.039Z,13.54
2018-10-03T09:27:33.159Z,13.52
2018-10-03T09:30:02.236Z,13.29
2018-10-03T09:32:31.339Z,13.23
2018-10-03T09:35:00.531Z,13.29
2018-10-03T09:37:29.643Z,13.43
2018-10-03T09:39:58.728Z,13.48
2018-10-03T09:42:27.917Z,13.42
2018-10-03T09:44:57.017Z,13.13
2018-10-03T09:47:26.123Z,13.16
2018-10-03T09:49:55.309Z,13.16
2018-10-03T09:52:24.417Z,13.26
2018-10-03T09:54:54.303Z,13.30
2018-10-03T09:57:23.417Z,13.08
2018-10-03T09:59:52.508Z,12.86
2018-10-03T10:02:21.636Z,12.94
2018-10-03T10:04:50.793Z,12.94
2018-10-03T10:07:19.921Z,12.91
2018-10-03T10:09:49.116Z,13.12
2018-10-03T10:12:18.554Z,13.06
2018-10-03T10:14:47.698Z,13.13
2018-10-03T10:17:16.886Z,13.10
2018-10-03T10:19:46.012Z,13.26
2018-10-03T10:22:15.177Z,13.11
2018-10-03T10:24:44.307Z,13.32
2018-10-03T10:27:13.416Z,13.34
2018-10-03T10:29:42.591Z,13.69
2018-10-03T10:32:11.717Z,13.95
2018-10-03T10:34:40.888Z,14.11
2018-10-03T10:37:09.977Z,14.18
2018-10-03T10:39:39.089Z,13.98
2018-10-03T10:42:08.256Z,13.86
2018-10-03T10:44:37.467Z,13.97
2018-10-03T10:47:06.691Z,13.94
2018-10-03T10:49:35.874Z,13.94
2018-10-03T10:52:05.085Z,13.82
2018-10-03T10:54:34.178Z,13.99
2018-10-03T10:57:03.359Z,13.80
2018-10-03T10:59:32.568Z,13.77
2018-10-03T11:02:01.720Z,13.54
2018-10-03T11:04:30.821Z,13.55
2018-10-03T11:06:59.913Z,13.58
2018-10-03T11:09:29.057Z,13.30
2018-10-03T11:11:58.209Z,13.29
2018-10-03T11:14:27.301Z,13.20
2018-10-03T11:16:56.429Z,13.12
2018-10-03T11:19:25.608Z,13.07
2018-10-03T11:21:54.704Z,13.05
2018-10-03T11:24:23.974Z,13.04
2018-10-03T11:26:53.008Z,13.12
2018-10-03T11:29:22.096Z,13.18
2018-10-03T11:31:51.268Z,13.09
2018-10-03T11:34:20.324Z,13.03
2018-10-03T11:36:49.448Z,12.93
2018-10-03T11:39:18.543Z,13.04
2018-10-03T11:41:48.047Z,13.07
2018-10-03T11:44:17.138Z,13.16
2018-10-03T11:46:46.232Z,13.25
2018-10-03T11:49:15.362Z,13.33
2018-10-03T11:51:44.468Z,13.36
2018-10-03T11:54:13.551Z,13.39
2018-10-03T11:56:42.731Z,13.39
2018-10-03T11:59:11.810Z,13.37
2018-10-03T12:01:40.956Z,13.38
2018-10-03T12:04:10.032Z,13.52
2018-10-03T12:06:39.631Z,13.25
2018-10-03T12:09:10.668Z,13.29
2018-10-03T12:11:40.528Z,13.34
2018-10-03T12:14:10.036Z,13.35
2018-10-03T12:16:39.990Z,13.26
2018-10-03T12:19:09.198Z,13.07
2018-10-03T12:21:38.312Z,13.09
2018-10-03T12:24:07.624Z,13.08
2018-10-03T12:26:36.723Z,13.04
2018-10-03T12:29:05.991Z,13.03
2018-10-03T12:31:35.122Z,13.06
2018-10-03T12:34:04.239Z,13.15
2018-10-03T12:36:33.387Z,13.26
2018-10-03T12:39:02.504Z,13.35
2018-10-03T12:41:31.669Z,13.31
2018-10-03T12:44:00.897Z,13.41
2018-10-03T12:46:30.062Z,13.43
2018-10-03T12:48:59.137Z,13.42
2018-10-03T12:51:28.456Z,13.41
2018-10-03T12:53:57.557Z,13.61
2018-10-03T12:56:26.656Z,13.53
2018-10-03T12:58:55.772Z,13.52
2018-10-03T13:01:25.115Z,14.12
2018-10-03T13:03:54.128Z,17.44
2018-10-03T13:06:23.400Z,15.95
2018-10-03T13:08:52.741Z,15.17
2018-10-03T13:11:21.862Z,14.76
2018-10-03T13:13:51.131Z,14.30
2018-10-03T13:16:20.196Z,14.12
2018-10-03T13:18:49.359Z,14.23
2018-10-03T13:21:18.543Z,14.42
2018-10-03T13:23:47.759Z,15.05
2018-10-03T13:26:16.825Z,15.03
2018-10-03T13:28:45.974Z,15.02
2018-10-03T13:31:15.112Z,14.79
2018-10-03T13:33:44.208Z,14.65
2018-10-03T13:36:13.341Z,14.51
2018-10-03T13:38:42.539Z,14.34
2018-10-03T13:41:11.684Z,14.17
2018-10-03T13:43:40.798Z,14.07
2018-10-03T13:46:09.987Z,13.99
2018-10-03T13:48:39.126Z,13.91
2018-10-03T13:51:08.199Z,13.84
2018-10-03T13:53:37.360Z,13.84
2018-10-03T13:56:06.837Z,13.82
2018-10-03T13:58:35.986Z,13.63
2018-10-03T14:01:05.088Z,13.48
2018-10-03T14:03:34.192Z,13.42
2018-10-03T14:06:03.298Z,13.31
2018-10-03T14:08:32.407Z,13.32
2018-10-03T14:11:01.521Z,13.25
2018-10-03T14:13:30.676Z,13.26
2018-10-03T14:15:59.856Z,13.34
2018-10-03T14:18:29.051Z,13.30
2018-10-03T14:20:58.164Z,13.20
2018-10-03T14:23:27.373Z,13.24
2018-10-03T14:25:56.649Z,13.42
2018-10-03T14:28:25.767Z,13.47
2018-10-03T14:30:54.929Z,13.47
2018-10-03T14:33:24.175Z,13.69
2018-10-03T14:35:53.220Z,14.97
2018-10-03T14:38:22.337Z,17.29
2018-10-03T14:40:51.448Z,15.75
2018-10-03T14:43:20.611Z,15.31
2018-10-03T14:45:49.737Z,14.98
2018-10-03T14:48:18.824Z,14.95
2018-10-03T14:50:47.897Z,14.70
2018-10-03T14:53:16.997Z,14.47
2018-10-03T14:55:46.104Z,14.30
2018-10-03T14:58:15.385Z,14.43
2018-10-03T15:00:44.501Z,14.38
2018-10-03T15:03:13.616Z,14.51
2018-10-03T15:05:42.797Z,14.76
2018-10-03T15:08:11.896Z,15.47
2018-10-03T15:10:40.980Z,16.55
2018-10-03T15:13:10.207Z,16.31
2018-10-03T15:15:39.273Z,15.85
2018-10-03T15:18:08.505Z,15.40
2018-10-03T15:20:37.518Z,15.05
2018-10-03T15:23:06.632Z,14.41
2018-10-03T15:25:35.724Z,14.36
2018-10-03T15:28:04.876Z,14.40
2018-10-03T15:30:34.042Z,14.26
2018-10-03T15:33:03.136Z,13.92
2018-10-03T15:35:32.314Z,14.04
2018-10-03T15:38:01.357Z,14.17
2018-10-03T15:40:30.484Z,14.08
2018-10-03T15:42:59.579Z,13.97
2018-10-03T15:45:28.712Z,13.91
2018-10-03T15:47:57.839Z,14.15
2018-10-03T15:50:27.018Z,14.26
2018-10-03T15:52:56.199Z,14.30
2018-10-03T15:55:25.306Z,14.24
2018-10-03T15:57:54.408Z,14.00
2018-10-03T16:00:23.512Z,14.01
2018-10-03T16:02:52.620Z,13.91
2018-10-03T16:05:21.802Z,13.77
2018-10-03T16:07:50.909Z,13.66
2018-10-03T16:10:20.095Z,13.67
2018-10-03T16:12:49.268Z,13.66
2018-10-03T16:15:18.362Z,13.52
2018-10-03T16:17:47.506Z,13.55
2018-10-03T16:20:16.687Z,13.56
2018-10-03T16:22:45.827Z,13.50
2018-10-03T16:25:15.208Z,13.53
2018-10-03T16:27:44.454Z,13.43
2018-10-03T16:30:13.564Z,13.39
2018-10-03T16:32:42.774Z,13.33
2018-10-03T16:35:11.855Z,13.31
2018-10-03T16:37:40.988Z,13.32
2018-10-03T16:40:10.158Z,13.32
2018-10-03T16:42:39.253Z,13.24
2018-10-03T16:45:08.556Z,13.26
2018-10-03T16:47:37.680Z,13.21
2018-10-03T16:50:06.838Z,13.25
2018-10-03T16:52:35.927Z,13.21
2018-10-03T16:55:05.048Z,13.18
2018-10-03T16:57:34.231Z,13.16
2018-10-03T17:00:03.920Z,13.09
2018-10-03T17:02:33.018Z,13.09
2018-10-03T17:05:02.317Z,13.04
2018-10-03T17:07:31.423Z,13.04
2018-10-03T17:10:00.672Z,13.00
2018-10-03T17:12:29.791Z,12.98
2018-10-03T17:14:58.919Z,12.92
2018-10-03T17:17:28.109Z,12.86
2018-10-03T17:19:57.245Z,12.75
2018-10-03T17:22:26.403Z,12.75
2018-10-03T17:24:55.613Z,12.68
2018-10-03T17:27:24.737Z,12.55
2018-10-03T17:29:53.805Z,12.53
2018-10-03T17:32:22.909Z,12.44
2018-10-03T17:34:51.994Z,12.30
2018-10-03T17:37:21.188Z,12.30
2018-10-03T17:39:50.376Z,12.18
2018-10-03T17:42:19.494Z,12.18
2018-10-03T17:44:48.576Z,12.05
2018-10-03T17:47:17.660Z,12.10
2018-10-03T17:49:46.780Z,12.12
2018-10-03T17:52:16.002Z,12.10
2018-10-03T17:54:45.115Z,12.07
2018-10-03T17:57:14.224Z,12.00
2018-10-03T17:59:43.302Z,11.95
2018-10-03T18:02:13.336Z,11.81
2018-10-03T18:04:42.654Z,11.70
2018-10-03T18:07:11.829Z,11.58
2018-10-03T18:09:40.913Z,11.65
2018-10-03T18:12:10.076Z,11.60
2018-10-03T18:14:39.159Z,11.60
2018-10-03T18:17:08.248Z,11.65
2018-10-03T18:19:37.335Z,11.53
2018-10-03T18:22:06.613Z,11.37
2018-10-03T18:27:11.085Z,11.36
2018-10-03T18:29:40.184Z,11.42
2018-10-03T18:32:09.284Z,11.37
2018-10-03T18:34:38.368Z,11.29
2018-10-03T18:37:08.314Z,11.37
2018-10-03T18:39:37.402Z,11.28
2018-10-03T18:42:06.602Z,11.35
2018-10-03T18:44:35.762Z,11.36
2018-10-03T18:47:04.880Z,11.35
2018-10-03T18:49:33.938Z,11.33
2018-10-03T18:52:03.096Z,11.19
2018-10-03T18:54:32.505Z,11.17
2018-10-03T18:57:01.668Z,11.01
2018-10-03T18:59:30.848Z,11.06
2018-10-03T19:02:00.082Z,10.95
2018-10-03T19:04:29.243Z,11.02
2018-10-03T19:06:58.357Z,10.87
2018-10-03T19:09:27.430Z,11.01
2018-10-03T19:11:56.553Z,10.97
2018-10-03T19:14:25.726Z,10.87
2018-10-03T19:16:54.817Z,10.92
2018-10-03T19:19:24.727Z,10.99
2018-10-03T19:21:53.960Z,11.02
2018-10-03T19:24:23.041Z,10.97
2018-10-03T19:26:52.253Z,10.97
2018-10-03T19:29:21.367Z,10.99
2018-10-03T19:31:50.519Z,11.01
2018-10-03T19:34:19.608Z,11.00
2018-10-03T19:36:48.796Z,11.00
2018-10-03T19:39:17.905Z,10.99
2018-10-03T19:41:47.040Z,11.01
2018-10-03T19:44:16.120Z,11.02
2018-10-03T19:46:45.188Z,10.95
2018-10-03T19:49:14.314Z,10.90
2018-10-03T19:51:43.624Z,10.71
2018-10-03T19:54:12.700Z,10.58
2018-10-03T19:56:41.872Z,10.42
2018-10-03T19:59:11.092Z,10.44
2018-10-03T20:01:40.415Z,10.30
2018-10-03T20:04:09.592Z,10.30
2018-10-03T20:06:38.760Z,10.21
2018-10-03T20:09:08.462Z,10.13
2018-10-03T20:11:37.758Z,10.09
2018-10-03T20:14:07.465Z,10.10
2018-10-03T20:16:36.620Z,10.09
2018-10-03T20:19:06.271Z,10.06
2018-10-03T20:21:35.536Z,10.07
2018-10-03T20:24:04.656Z,10.13
2018-10-03T20:26:33.997Z,10.13
2018-10-03T20:29:03.056Z,10.11
2018-10-03T20:31:32.359Z,10.18
2018-10-03T20:34:01.652Z,10.32
2018-10-03T20:36:30.930Z,10.37
2018-10-03T20:39:00.158Z,10.42
2018-10-03T20:41:29.331Z,10.47
2018-10-03T20:43:58.439Z,10.54
2018-10-03T20:46:27.559Z,10.65
2018-10-03T20:48:56.730Z,10.43
2018-10-03T20:51:25.879Z,10.52
2018-10-03T20:53:55.089Z,10.57
2018-10-03T20:56:24.266Z,10.53
2018-10-03T20:58:53.484Z,10.53
2018-10-03T21:01:22.644Z,10.61
2018-10-03T21:03:51.749Z,10.65
2018-10-03T21:06:20.843Z,10.71
2018-10-03T21:08:50.177Z,10.73
2018-10-03T21:11:19.136Z,10.70
2018-10-03T21:13:48.353Z,10.74
2018-10-03T21:16:17.533Z,10.70
2018-10-03T21:18:46.709Z,10.72
2018-10-03T21:21:15.807Z,10.76
2018-10-03T21:23:45.090Z,10.67
2018-10-03T21:26:14.215Z,10.66
2018-10-03T21:28:43.445Z,10.64
2018-10-03T21:31:12.611Z,10.51
2018-10-03T21:33:41.721Z,10.49
2018-10-03T21:36:10.859Z,10.43
2018-10-03T21:38:39.953Z,10.46
2018-10-03T21:41:09.073Z,10.50
2018-10-03T21:43:38.425Z,10.38
2018-10-03T21:46:07.791Z,10.47
2018-10-03T21:48:36.884Z,10.38
2018-10-03T21:51:06.216Z,10.39
2018-10-03T21:53:35.586Z,10.46
2018-10-03T21:56:04.644Z,10.51
2018-10-03T21:58:33.815Z,10.42
2018-10-03T22:01:02.984Z,10.29
2018-10-03T22:03:32.142Z,10.16
2018-10-03T22:06:01.280Z,10.14
2018-10-03T22:08:30.373Z,10.04
2018-10-03T22:10:59.472Z,9.99
2018-10-03T22:13:28.684Z,9.92
2018-10-03T22:15:57.773Z,9.82
2018-10-03T22:18:26.889Z,9.86
2018-10-03T22:20:56.080Z,9.81
2018-10-03T22:23:25.623Z,9.85
2018-10-03T22:25:54.715Z,10.08
2018-10-03T22:28:23.944Z,10.08
2018-10-03T22:30:53.055Z,10.22
2018-10-03T22:33:22.199Z,10.21
2018-10-03T22:35:51.322Z,10.14
2018-10-03T22:38:20.487Z,9.99
2018-10-03T22:40:49.640Z,10.03
2018-10-03T22:43:18.713Z,9.95
2018-10-03T22:45:47.797Z,10.01
2018-10-03T22:48:16.961Z,10.06
2018-10-03T22:50:46.047Z,10.26
2018-10-03T22:53:15.163Z,10.36
2018-10-03T22:55:44.338Z,10.32
2018-10-03T22:58:13.495Z,10.24
2018-10-03T23:00:42.592Z,10.18
2018-10-03T23:03:11.673Z,10.06
2018-10-03T23:05:40.913Z,10.07
2018-10-03T23:08:09.977Z,10.25
2018-10-03T23:10:39.200Z,10.42
2018-10-03T23:13:08.332Z,10.28
2018-10-03T23:15:37.452Z,10.36
2018-10-03T23:18:06.676Z,10.23
2018-10-03T23:20:35.784Z,10.24
2018-10-03T23:23:04.860Z,10.25
2018-10-03T23:25:33.948Z,10.20
2018-10-03T23:28:03.030Z,10.20
2018-10-03T23:30:32.123Z,10.23
2018-10-03T23:33:01.188Z,10.29
2018-10-03T23:35:30.311Z,10.31
2018-10-03T23:37:59.539Z,10.33
2018-10-03T23:40:28.650Z,10.32
2018-10-03T23:42:57.769Z,10.38
2018-10-03T23:45:26.943Z,10.38
2018-10-03T23:47:56.133Z,10.31
2018-10-03T23:50:25.451Z,10.44
2018-10-03T23:52:54.613Z,10.35
2018-10-03T23:55:23.775Z,10.37
2018-10-03T23:57:53.013Z,10.32
